createdAt,value
2022-07-29T00:00:27.839Z,99.90
2022-07-29T00:02:58.029Z,99.90
2022-07-29T00:05:26.121Z,99.90
2022-07-29T00:07:53.122Z,99.90
2022-07-29T00:10:20.102Z,99.90
2022-07-29T00:12:47.054Z,99.90
2022-07-29T00:15:15.452Z,99.90
2022-07-29T00:17:42.782Z,99.90
2022-07-29T00:20:10.535Z,99.90
2022-07-29T00:22:40.545Z,99.90
2022-07-29T00:25:08.762Z,99.90
2022-07-29T00:27:37.122Z,99.90
2022-07-29T00:30:06.128Z,99.90
2022-07-29T00:32:33.226Z,99.90
2022-07-29T00:35:19.723Z,99.90
2022-07-29T00:37:50.524Z,99.90
2022-07-29T00:40:17.732Z,99.90
2022-07-29T00:42:49.835Z,99.90
2022-07-29T00:45:17.695Z,99.90
2022-07-29T00:47:45.580Z,99.90
2022-07-29T00:50:14.201Z,99.90
2022-07-29T00:52:43.372Z,99.90
2022-07-29T00:55:13.232Z,99.90
2022-07-29T00:57:42.225Z,99.90
2022-07-29T01:00:12.187Z,99.90
2022-07-29T01:02:39.393Z,99.90
2022-07-29T01:05:07.398Z,99.90
2022-07-29T01:07:36.775Z,99.90
2022-07-29T01:10:08.881Z,99.90
2022-07-29T01:12:39.458Z,99.90
2022-07-29T01:15:09.272Z,99.90
2022-07-29T01:17:58.332Z,99.90
2022-07-29T01:20:42.368Z,99.90
2022-07-29T01:23:25.871Z,99.90
2022-07-29T01:26:14.904Z,99.90
2022-07-29T01:28:57.653Z,99.90
2022-07-29T01:31:58.615Z,99.90
2022-07-29T01:34:44.954Z,99.90
2022-07-29T01:37:19.723Z,99.90
2022-07-29T01:39:49.236Z,99.90
2022-07-29T01:42:35.330Z,99.90
2022-07-29T01:45:19.730Z,99.90
2022-07-29T01:48:01.177Z,99.90
2022-07-29T01:51:08.707Z,99.90
2022-07-29T01:54:00.402Z,99.90
2022-07-29T01:56:32.887Z,99.90
2022-07-29T01:59:00.290Z,99.90
2022-07-29T02:01:28.416Z,99.90
2022-07-29T02:03:59.500Z,99.90
2022-07-29T02:06:28.690Z,99.90
2022-07-29T02:08:59.179Z,99.90
2022-07-29T02:11:27.149Z,99.90
2022-07-29T02:13:57.594Z,99.90
2022-07-29T02:16:27.249Z,99.90
2022-07-29T02:18:56.838Z,99.90
2022-07-29T02:21:26.082Z,99.90
2022-07-29T02:23:54.098Z,99.90
2022-07-29T02:26:22.258Z,99.90
2022-07-29T02:28:52.581Z,99.90
2022-07-29T02:31:24.031Z,99.90
2022-07-29T02:33:52.450Z,99.90
2022-07-29T02:36:24.412Z,99.90
2022-07-29T02:38:52.540Z,99.90
2022-07-29T02:41:32.106Z,99.90
2022-07-29T02:44:06.020Z,99.90
2022-07-29T02:46:35.722Z,99.90
2022-07-29T02:49:16.563Z,99.90
2022-07-29T02:52:16.494Z,99.90
2022-07-29T02:55:17.503Z,99.90
2022-07-29T02:57:53.858Z,99.90
2022-07-29T03:00:28.972Z,99.90
2022-07-29T03:03:04.415Z,99.90
2022-07-29T03:05:33.391Z,99.90
2022-07-29T03:08:03.977Z,99.90
2022-07-29T03:10:32.016Z,99.90
2022-07-29T03:13:00.404Z,99.90
2022-07-29T03:15:28.118Z,99.90
2022-07-29T03:17:56.553Z,99.90
2022-07-29T03:20:23.671Z,99.90
2022-07-29T03:22:51.928Z,99.90
2022-07-29T03:25:20.385Z,99.90
2022-07-29T03:27:48.010Z,99.90
2022-07-29T03:30:20.386Z,99.90
2022-07-29T03:32:52.041Z,99.90
2022-07-29T03:35:22.244Z,99.90
2022-07-29T03:37:49.605Z,99.90
2022-07-29T03:40:25.644Z,99.90
2022-07-29T03:42:54.226Z,99.90
2022-07-29T03:45:22.739Z,99.90
2022-07-29T03:48:00.546Z,99.90
2022-07-29T03:50:30.231Z,99.90
2022-07-29T03:52:57.332Z,99.90
2022-07-29T03:55:25.116Z,99.90
2022-07-29T03:57:52.286Z,99.90
2022-07-29T04:00:20.587Z,99.90
2022-07-29T04:02:49.789Z,99.90
2022-07-29T04:05:18.000Z,99.90
2022-07-29T04:07:47.053Z,99.90
2022-07-29T04:10:14.171Z,99.90
2022-07-29T04:12:41.449Z,99.90
2022-07-29T04:15:10.414Z,99.90
2022-07-29T04:17:37.448Z,99.90
2022-07-29T04:20:15.858Z,99.90
2022-07-29T04:22:42.777Z,99.90
2022-07-29T04:25:09.848Z,99.90
2022-07-29T04:27:36.966Z,99.90
2022-07-29T04:30:04.430Z,99.90
2022-07-29T04:32:31.469Z,99.90
2022-07-29T04:35:00.391Z,99.90
2022-07-29T04:37:27.457Z,99.90
2022-07-29T04:39:54.291Z,99.90
2022-07-29T04:42:25.203Z,99.90
2022-07-29T04:44:54.714Z,99.90
2022-07-29T04:47:21.595Z,99.90
2022-07-29T04:49:48.382Z,99.90
2022-07-29T04:52:15.263Z,99.90
2022-07-29T04:54:42.149Z,99.90
2022-07-29T04:57:08.970Z,99.90
2022-07-29T04:59:35.938Z,99.90
2022-07-29T05:02:02.822Z,99.90
2022-07-29T05:04:30.088Z,99.90
2022-07-29T05:06:58.160Z,99.90
2022-07-29T05:09:25.084Z,99.90
2022-07-29T05:11:51.983Z,99.90
2022-07-29T05:14:19.290Z,99.90
2022-07-29T05:16:46.569Z,99.90
2022-07-29T05:19:14.583Z,99.90
2022-07-29T05:21:45.933Z,99.90
2022-07-29T05:24:13.004Z,99.90
2022-07-29T05:26:40.467Z,99.90
2022-07-29T05:29:07.450Z,99.90
2022-07-29T05:31:54.270Z,99.90
2022-07-29T05:34:21.205Z,99.90
2022-07-29T05:36:49.105Z,99.90
2022-07-29T05:39:18.049Z,99.90
2022-07-29T05:41:51.538Z,99.90
2022-07-29T05:44:19.264Z,99.90
2022-07-29T05:46:48.369Z,99.90
2022-07-29T05:49:23.067Z,99.90
2022-07-29T05:51:54.560Z,99.90
2022-07-29T05:54:22.953Z,99.90
2022-07-29T05:56:52.432Z,99.90
2022-07-29T05:59:20.334Z,99.90
2022-07-29T06:01:47.344Z,99.90
2022-07-29T06:04:15.655Z,99.90
2022-07-29T06:06:42.756Z,99.90
2022-07-29T06:09:12.502Z,99.90
2022-07-29T06:11:40.349Z,99.90
2022-07-29T06:14:07.281Z,99.90
2022-07-29T06:16:34.239Z,99.90
2022-07-29T06:19:01.227Z,99.90
2022-07-29T06:21:28.279Z,99.90
2022-07-29T06:23:56.219Z,99.90
2022-07-29T06:26:30.847Z,99.90
2022-07-29T06:28:59.977Z,99.90
2022-07-29T06:31:27.987Z,99.90
2022-07-29T06:33:54.919Z,99.90
2022-07-29T06:36:22.961Z,99.90
2022-07-29T06:38:52.275Z,99.90
2022-07-29T06:41:20.541Z,99.90
2022-07-29T06:43:51.785Z,99.90
2022-07-29T06:46:21.943Z,99.90
2022-07-29T06:48:51.323Z,99.90
2022-07-29T06:51:22.738Z,99.90
2022-07-29T06:54:00.394Z,99.90
2022-07-29T06:56:38.953Z,99.90
2022-07-29T06:59:10.527Z,99.90
2022-07-29T07:01:43.208Z,99.90
2022-07-29T07:04:11.430Z,99.90
2022-07-29T07:06:38.901Z,99.90
2022-07-29T07:09:07.629Z,99.90
2022-07-29T07:11:35.935Z,99.90
2022-07-29T07:14:04.126Z,99.90
2022-07-29T07:16:32.400Z,99.90
2022-07-29T07:18:59.450Z,99.90
2022-07-29T07:21:26.430Z,99.90
2022-07-29T07:23:57.382Z,99.90
2022-07-29T07:26:26.968Z,99.90
2022-07-29T07:28:54.284Z,99.90
2022-07-29T07:31:21.636Z,99.90
2022-07-29T07:33:48.673Z,99.90
2022-07-29T07:36:16.536Z,99.90
2022-07-29T07:38:43.464Z,99.90
2022-07-29T07:41:10.377Z,99.90
2022-07-29T07:43:37.328Z,99.90
2022-07-29T07:46:04.353Z,99.90
2022-07-29T07:48:32.471Z,99.90
2022-07-29T07:50:59.416Z,99.90
2022-07-29T07:53:26.460Z,99.90
2022-07-29T07:56:09.839Z,99.90
2022-07-29T07:58:39.799Z,99.90
2022-07-29T08:01:08.345Z,99.90
2022-07-29T08:03:35.499Z,99.90
2022-07-29T08:06:03.505Z,99.90
2022-07-29T08:08:30.620Z,99.90
2022-07-29T08:10:57.781Z,99.90
2022-07-29T08:13:29.079Z,99.90
2022-07-29T08:15:59.465Z,99.90
2022-07-29T08:18:28.244Z,99.90
2022-07-29T08:20:55.855Z,99.90
2022-07-29T08:23:24.140Z,99.90
2022-07-29T08:25:54.847Z,99.90
2022-07-29T08:28:26.032Z,99.90
2022-07-29T08:30:55.862Z,99.90
2022-07-29T08:33:22.730Z,99.90
2022-07-29T08:35:51.262Z,99.90
2022-07-29T08:38:19.201Z,99.90
2022-07-29T08:40:46.992Z,99.90
2022-07-29T08:43:14.490Z,99.90
2022-07-29T08:45:47.219Z,99.90
2022-07-29T08:48:17.938Z,99.90
2022-07-29T08:50:46.564Z,99.90
2022-07-29T08:53:18.525Z,99.90
2022-07-29T08:55:47.421Z,99.90
2022-07-29T08:58:15.823Z,99.90
2022-07-29T09:00:46.828Z,99.90
2022-07-29T09:03:19.462Z,99.90
2022-07-29T09:05:48.256Z,99.90
2022-07-29T09:08:17.223Z,99.90
2022-07-29T09:10:45.795Z,99.90
2022-07-29T09:13:13.692Z,99.90
2022-07-29T09:15:41.651Z,99.90
2022-07-29T09:18:20.458Z,99.90
2022-07-29T09:21:15.351Z,99.90
2022-07-29T09:24:03.764Z,99.90
2022-07-29T09:26:33.828Z,99.90
2022-07-29T09:29:08.255Z,99.90
2022-07-29T09:31:39.511Z,99.90
2022-07-29T09:34:07.976Z,99.90
2022-07-29T09:36:50.758Z,99.90
2022-07-29T09:39:36.104Z,99.90
2022-07-29T09:42:07.493Z,99.90
2022-07-29T09:44:50.151Z,99.90
2022-07-29T09:47:19.513Z,99.90
2022-07-29T09:50:00.925Z,99.90
2022-07-29T09:52:30.975Z,99.90
2022-07-29T09:55:08.675Z,99.90
2022-07-29T09:57:35.801Z,99.90
2022-07-29T10:00:09.971Z,99.90
2022-07-29T10:02:44.129Z,99.90
2022-07-29T10:05:22.622Z,99.90
2022-07-29T10:07:53.934Z,99.90
2022-07-29T10:10:25.292Z,99.90
2022-07-29T10:12:57.760Z,99.90
2022-07-29T10:15:29.786Z,99.90
2022-07-29T10:17:59.236Z,99.90
2022-07-29T10:20:27.818Z,99.90
2022-07-29T10:22:55.590Z,99.90
2022-07-29T10:25:23.699Z,99.90
2022-07-29T10:27:53.023Z,99.90
2022-07-29T10:30:21.866Z,99.90
2022-07-29T10:33:16.047Z,99.90
2022-07-29T10:36:40.464Z,99.90
2022-07-29T10:39:22.252Z,99.90
2022-07-29T10:42:03.562Z,99.90
2022-07-29T10:44:31.285Z,99.90
2022-07-29T10:47:02.328Z,99.90
2022-07-29T10:49:32.979Z,99.90
2022-07-29T10:52:10.610Z,99.90
2022-07-29T10:54:52.344Z,99.90
2022-07-29T10:57:54.127Z,99.90
2022-07-29T11:00:16.866Z,99.90
2022-07-29T11:02:50.145Z,99.90
2022-07-29T11:05:20.483Z,99.90
2022-07-29T11:08:26.053Z,99.90
2022-07-29T11:11:15.904Z,99.90
2022-07-29T11:13:55.703Z,99.90
2022-07-29T11:16:25.323Z,99.90
2022-07-29T11:19:26.219Z,99.90
2022-07-29T11:21:58.227Z,99.90
2022-07-29T11:24:36.875Z,99.90
2022-07-29T11:27:23.625Z,99.90
2022-07-29T11:29:58.673Z,99.90
2022-07-29T11:32:38.920Z,99.90
2022-07-29T11:35:38.371Z,99.80
2022-07-29T11:38:28.583Z,99.50
2022-07-29T11:41:30.001Z,98.80
2022-07-29T11:44:02.440Z,97.60
2022-07-29T11:46:48.247Z,96.60
2022-07-29T11:49:21.893Z,97.00
2022-07-29T11:51:55.599Z,97.70
2022-07-29T11:54:31.987Z,98.30
2022-07-29T11:57:02.437Z,98.20
2022-07-29T12:02:37.088Z,97.40
2022-07-29T12:05:10.992Z,96.30
2022-07-29T12:07:41.310Z,95.60
2022-07-29T12:10:19.826Z,94.60
2022-07-29T12:12:53.608Z,93.80
2022-07-29T12:15:22.428Z,93.40
2022-07-29T12:17:49.775Z,93.10
2022-07-29T12:20:30.945Z,92.70
2022-07-29T12:22:58.894Z,93.00
2022-07-29T12:25:33.918Z,92.20
2022-07-29T12:28:03.680Z,91.60
2022-07-29T12:30:42.305Z,91.10
2022-07-29T12:33:15.859Z,90.50
2022-07-29T12:35:47.836Z,90.20
2022-07-29T12:38:21.627Z,89.70
2022-07-29T12:40:52.188Z,88.10
2022-07-29T12:43:22.148Z,86.40
2022-07-29T12:45:52.795Z,85.30
2022-07-29T12:48:37.580Z,83.70
2022-07-29T12:51:08.448Z,85.50
2022-07-29T12:53:36.230Z,86.40
2022-07-29T12:56:15.533Z,86.40
2022-07-29T12:58:55.926Z,86.50
2022-07-29T13:01:23.072Z,87.40
2022-07-29T13:04:01.505Z,87.60
2022-07-29T13:06:59.528Z,85.10
2022-07-29T13:09:41.480Z,83.70
2022-07-29T13:12:13.633Z,82.30
2022-07-29T13:14:51.378Z,82.50
2022-07-29T13:17:28.692Z,82.70
2022-07-29T13:20:13.352Z,83.70
2022-07-29T13:22:42.225Z,86.10
2022-07-29T13:25:10.719Z,86.50
2022-07-29T13:27:41.053Z,86.70
2022-07-29T13:30:10.404Z,88.00
2022-07-29T13:32:43.470Z,88.80
2022-07-29T13:35:11.157Z,90.00
2022-07-29T13:37:39.698Z,90.10
2022-07-29T13:40:11.305Z,90.10
2022-07-29T13:42:40.437Z,87.40
2022-07-29T13:45:08.279Z,85.30
2022-07-29T13:47:35.297Z,84.50
2022-07-29T13:50:03.488Z,83.80
2022-07-29T13:52:32.364Z,84.20
2022-07-29T13:55:01.915Z,82.90
2022-07-29T13:57:29.420Z,80.30
2022-07-29T13:59:57.568Z,78.60
2022-07-29T14:02:25.627Z,77.40
2022-07-29T14:04:54.691Z,78.30
2022-07-29T14:07:22.433Z,78.00
2022-07-29T14:09:51.064Z,78.60
2022-07-29T14:12:18.470Z,77.20
2022-07-29T14:14:47.599Z,75.40
2022-07-29T14:17:17.372Z,74.40
2022-07-29T14:19:44.547Z,74.20
2022-07-29T14:22:11.670Z,74.30
2022-07-29T14:24:38.915Z,73.00
2022-07-29T14:27:37.230Z,69.50
2022-07-29T14:30:09.353Z,66.90
2022-07-29T14:32:36.526Z,66.20
2022-07-29T14:35:32.482Z,68.20
2022-07-29T14:38:23.999Z,69.40
2022-07-29T14:41:01.280Z,71.30
2022-07-29T14:43:30.533Z,72.30
2022-07-29T14:46:08.592Z,72.60
2022-07-29T14:48:36.258Z,73.60
2022-07-29T14:51:12.006Z,72.40
2022-07-29T14:53:59.738Z,69.90
2022-07-29T14:56:37.121Z,68.20
2022-07-29T14:59:45.462Z,68.30
2022-07-29T15:02:13.985Z,67.90
2022-07-29T15:04:50.043Z,68.80
2022-07-29T15:07:19.551Z,69.30
2022-07-29T15:09:59.723Z,69.80
2022-07-29T15:12:33.534Z,71.30
2022-07-29T15:15:35.142Z,72.00
2022-07-29T15:18:04.893Z,72.30
2022-07-29T15:20:32.246Z,72.70
2022-07-29T15:23:10.837Z,73.80
2022-07-29T15:26:05.571Z,73.60
2022-07-29T15:28:37.540Z,74.70
2022-07-29T15:31:10.660Z,75.10
2022-07-29T15:34:13.574Z,76.20
2022-07-29T15:36:52.824Z,76.40
2022-07-29T15:39:23.184Z,76.60
2022-07-29T15:45:14.218Z,78.10
2022-07-29T15:48:26.235Z,77.90
2022-07-29T15:50:57.229Z,78.40
2022-07-29T15:53:24.381Z,78.40
2022-07-29T15:55:51.592Z,77.20
2022-07-29T15:58:18.940Z,76.70
2022-07-29T16:00:45.874Z,77.50
2022-07-29T16:03:15.080Z,77.80
2022-07-29T16:05:42.786Z,77.70
2022-07-29T16:08:11.046Z,78.90
2022-07-29T16:10:38.199Z,78.90
2022-07-29T16:13:05.171Z,78.00
2022-07-29T16:15:32.668Z,78.20
2022-07-29T16:18:00.856Z,78.40
2022-07-29T16:20:28.087Z,78.40
2022-07-29T16:22:55.683Z,78.40
2022-07-29T16:25:38.462Z,79.10
2022-07-29T16:28:10.534Z,79.50
2022-07-29T16:30:37.840Z,79.80
2022-07-29T16:33:08.435Z,80.70
2022-07-29T16:35:39.313Z,80.50
2022-07-29T16:38:07.149Z,79.60
2022-07-29T16:40:34.103Z,79.50
2022-07-29T16:43:01.015Z,79.70
2022-07-29T16:45:39.469Z,80.00
2022-07-29T16:48:15.028Z,79.70
2022-07-29T16:50:44.981Z,80.20
2022-07-29T16:53:12.619Z,80.90
2022-07-29T16:55:42.415Z,80.90
2022-07-29T16:58:11.729Z,81.30
2022-07-29T17:00:42.418Z,81.20
2022-07-29T17:03:10.528Z,81.50
2022-07-29T17:05:52.599Z,81.20
2022-07-29T17:08:21.985Z,81.20
2022-07-29T17:10:50.110Z,82.20
2022-07-29T17:13:17.070Z,82.90
2022-07-29T17:15:47.556Z,83.00
2022-07-29T17:18:14.762Z,83.40
2022-07-29T17:20:42.716Z,83.80
2022-07-29T17:23:09.848Z,83.90
2022-07-29T17:25:36.892Z,84.10
2022-07-29T17:28:03.970Z,84.80
2022-07-29T17:30:32.910Z,84.70
2022-07-29T17:32:59.864Z,85.30
2022-07-29T17:35:45.256Z,86.10
2022-07-29T17:38:12.249Z,86.60
2022-07-29T17:40:39.393Z,87.20
2022-07-29T17:43:09.257Z,87.60
2022-07-29T17:45:50.197Z,88.10
2022-07-29T17:48:18.297Z,88.60
2022-07-29T17:50:45.701Z,88.80
2022-07-29T17:53:16.302Z,89.00
2022-07-29T17:55:45.759Z,89.20
2022-07-29T17:58:12.862Z,89.30
2022-07-29T18:00:44.091Z,89.60
2022-07-29T18:03:11.328Z,90.20
2022-07-29T18:05:51.498Z,91.00
2022-07-29T18:08:18.621Z,91.70
2022-07-29T18:10:46.119Z,92.10
2022-07-29T18:13:13.396Z,92.40
2022-07-29T18:15:40.987Z,92.90
2022-07-29T18:18:08.059Z,93.10
2022-07-29T18:20:35.197Z,93.30
2022-07-29T18:23:02.436Z,93.50
2022-07-29T18:25:32.945Z,93.70
2022-07-29T18:28:00.810Z,94.00
2022-07-29T18:30:34.322Z,94.00
2022-07-29T18:33:21.394Z,94.10
2022-07-29T18:35:52.525Z,94.30
2022-07-29T18:38:39.907Z,94.50
2022-07-29T18:41:07.594Z,94.50
2022-07-29T18:43:34.661Z,94.60
2022-07-29T18:46:01.880Z,94.70
2022-07-29T18:48:29.687Z,95.10
2022-07-29T18:50:57.636Z,95.10
2022-07-29T18:53:25.657Z,95.20
2022-07-29T18:55:55.390Z,95.20
2022-07-29T18:58:25.798Z,95.40
2022-07-29T19:00:53.946Z,95.40
2022-07-29T19:03:24.706Z,95.40
2022-07-29T19:05:52.772Z,95.60
2022-07-29T19:08:19.794Z,95.90
2022-07-29T19:10:46.924Z,96.20
2022-07-29T19:13:20.987Z,96.40
2022-07-29T19:15:48.451Z,96.50
2022-07-29T19:18:15.555Z,96.70
2022-07-29T19:20:44.575Z,96.80
2022-07-29T19:23:11.758Z,97.30
2022-07-29T19:25:53.188Z,97.20
2022-07-29T19:28:23.036Z,97.40
2022-07-29T19:30:50.364Z,97.80
2022-07-29T19:33:22.173Z,98.20
2022-07-29T19:35:54.924Z,98.50
2022-07-29T19:38:24.323Z,98.70
2022-07-29T19:40:52.091Z,99.00
2022-07-29T19:43:49.962Z,99.20
2022-07-29T19:46:06.209Z,99.10
2022-07-29T19:48:34.335Z,99.20
2022-07-29T19:51:03.149Z,99.30
2022-07-29T19:53:31.384Z,99.50
2022-07-29T19:56:01.457Z,99.90
2022-07-29T19:58:29.858Z,99.90
2022-07-29T20:00:57.868Z,99.90
2022-07-29T20:03:25.803Z,99.90
2022-07-29T20:05:53.835Z,99.90
2022-07-29T20:08:23.007Z,99.90
2022-07-29T20:10:49.983Z,99.90
2022-07-29T20:13:17.389Z,99.90
2022-07-29T20:15:47.398Z,99.90
2022-07-29T20:18:15.938Z,99.90
2022-07-29T20:20:43.458Z,99.90
2022-07-29T20:23:11.831Z,99.90
2022-07-29T20:25:39.356Z,99.90
2022-07-29T20:28:07.558Z,99.90
2022-07-29T20:30:34.936Z,99.90
2022-07-29T20:33:06.928Z,99.90
2022-07-29T20:35:34.809Z,99.90
2022-07-29T20:38:18.330Z,99.90
2022-07-29T20:41:10.944Z,99.90
2022-07-29T20:43:39.112Z,99.90
2022-07-29T20:46:12.399Z,99.90
2022-07-29T20:48:42.383Z,99.90
2022-07-29T20:51:10.798Z,99.90
2022-07-29T20:53:39.807Z,99.90
2022-07-29T20:56:08.339Z,99.90
2022-07-29T20:58:38.585Z,99.90
2022-07-29T21:01:06.822Z,99.90
2022-07-29T21:03:33.874Z,99.90
2022-07-29T21:06:04.305Z,99.90
2022-07-29T21:08:32.354Z,99.90
2022-07-29T21:10:59.448Z,99.90
2022-07-29T21:13:26.471Z,99.90
2022-07-29T21:15:57.743Z,99.90
2022-07-29T21:18:30.373Z,99.90
2022-07-29T21:21:01.470Z,99.90
2022-07-29T21:23:28.451Z,99.90
2022-07-29T21:25:55.851Z,99.90
2022-07-29T21:28:40.114Z,99.90
2022-07-29T21:31:13.849Z,99.90
2022-07-29T21:33:43.706Z,99.90
2022-07-29T21:36:46.369Z,99.90
2022-07-29T21:39:07.001Z,99.90
2022-07-29T21:41:35.318Z,99.90
2022-07-29T21:44:03.227Z,99.90
2022-07-29T21:46:31.159Z,99.90
2022-07-29T21:48:58.407Z,99.90
2022-07-29T21:51:25.441Z,99.90
2022-07-29T21:53:53.252Z,99.90
2022-07-29T21:56:20.397Z,99.90
2022-07-29T21:58:51.863Z,99.90
2022-07-29T22:01:19.464Z,99.90
2022-07-29T22:03:46.402Z,99.90
2022-07-29T22:06:18.188Z,99.90
2022-07-29T22:08:48.080Z,99.90
2022-07-29T22:11:15.172Z,99.90
2022-07-29T22:13:42.045Z,99.90
2022-07-29T22:16:10.320Z,99.90
2022-07-29T22:18:38.362Z,99.90
2022-07-29T22:21:09.397Z,99.90
2022-07-29T22:23:36.517Z,99.90
2022-07-29T22:26:03.973Z,99.90
2022-07-29T22:28:33.412Z,99.90
2022-07-29T22:31:00.403Z,99.90
2022-07-29T22:33:28.798Z,99.90
2022-07-29T22:35:55.838Z,99.90
2022-07-29T22:38:22.757Z,99.90
2022-07-29T22:40:51.231Z,99.90
2022-07-29T22:43:18.425Z,99.90
2022-07-29T22:45:46.593Z,99.90
2022-07-29T22:48:16.860Z,99.90
2022-07-29T22:50:43.934Z,99.90
2022-07-29T22:53:10.926Z,99.90
2022-07-29T22:55:39.895Z,99.90
2022-07-29T22:58:06.832Z,99.90
2022-07-29T23:00:33.986Z,99.90
2022-07-29T23:03:00.954Z,99.90
2022-07-29T23:05:27.918Z,99.90
2022-07-29T23:07:59.829Z,99.90
2022-07-29T23:10:26.917Z,99.90
2022-07-29T23:12:54.066Z,99.90
2022-07-29T23:15:22.091Z,99.90
2022-07-29T23:17:49.204Z,99.90
2022-07-29T23:20:16.254Z,99.90
2022-07-29T23:22:44.235Z,99.90
2022-07-29T23:25:11.154Z,99.90
2022-07-29T23:27:39.565Z,99.90
2022-07-29T23:30:08.106Z,99.90
2022-07-29T23:32:35.239Z,99.90
2022-07-29T23:35:02.304Z,99.90
2022-07-29T23:37:30.240Z,99.90
2022-07-29T23:39:58.170Z,99.90
2022-07-29T23:42:27.472Z,99.90
2022-07-29T23:44:55.453Z,99.90
2022-07-29T23:47:22.398Z,99.90
2022-07-29T23:49:50.269Z,99.90
2022-07-29T23:52:18.183Z,99.90
2022-07-29T23:54:45.250Z,99.90
2022-07-29T23:57:12.151Z,99.90
2022-07-29T23:59:39.044Z,99.90
